Time;durP1;ratioP1;P1;durP2;ratioP2;P2;SDS_P1;SDS_P2;PMS_P1;PMS_P2;Temp;Humidity;BMP_temperature;BMP_pressure;BME280_temperature;BME280_humidity;BME280_pressure;Samples;Min_cycle;Max_cycle;Signal;HPM_P1;HPM_P2
2023/07/06 00:02:22;;;;;;;2.25;2.08;;;;;;;;;;5143696;27;20252;-67
2023/07/06 00:04:49;;;;;;;2.13;2.00;;;;;;;;;;5144029;27;20194;-67
2023/07/06 00:07:20;;;;;;;3.08;2.08;;;;;;;;;;5143719;27;20258;-67
2023/07/06 00:09:48;;;;;;;3.08;2.50;;;;;;;;;;5144028;27;20521;-67
2023/07/06 00:12:14;;;;;;;1.80;1.70;;;;;;;;;;5143671;27;20194;-67
2023/07/06 00:14:41;;;;;;;2.15;1.90;;;;;;;;;;5143588;27;20221;-67
2023/07/06 00:17:10;;;;;;;4.20;1.75;;;;;;;;;;5143679;27;20225;-67
2023/07/06 00:19:37;;;;;;;2.13;2.03;;;;;;;;;;5143554;27;20206;-67
2023/07/06 00:22:03;;;;;;;2.72;2.17;;;;;;;;;;5143552;27;20201;-67
2023/07/06 00:24:30;;;;;;;2.72;1.95;;;;;;;;;;5143805;27;20190;-67
2023/07/06 00:26:58;;;;;;;2.50;1.90;;;;;;;;;;5143400;27;20259;-67
2023/07/06 00:29:26;;;;;;;2.30;2.17;;;;;;;;;;5143428;27;20502;-67
2023/07/06 00:32:04;;;;;;;2.63;2.03;;;;;;;;;;5143047;27;20398;-67
2023/07/06 00:34:33;;;;;;;1.90;1.80;;;;;;;;;;5142655;27;20338;-67
2023/07/06 00:36:59;;;;;;;1.95;1.80;;;;;;;;;;5143457;27;20194;-67
2023/07/06 00:39:26;;;;;;;2.30;2.10;;;;;;;;;;5143257;27;20201;-67
2023/07/06 00:41:52;;;;;;;2.85;2.17;;;;;;;;;;5143094;27;20202;-67
2023/07/06 00:44:37;;;;;;;2.55;2.35;;;;;;;;;;5143242;27;20513;-67
2023/07/06 00:47:07;;;;;;;7.40;2.10;;;;;;;;;;5143304;27;20198;-67
2023/07/06 00:49:34;;;;;;;1.90;1.80;;;;;;;;;;5143385;27;20198;-67
2023/07/06 00:52:00;;;;;;;2.20;1.98;;;;;;;;;;5143078;27;20198;-67
2023/07/06 00:54:28;;;;;;;1.95;1.85;;;;;;;;;;5143070;27;20228;-67
2023/07/06 00:56:55;;;;;;;2.17;1.98;;;;;;;;;;5143013;27;20254;-67
2023/07/06 00:59:26;;;;;;;2.35;1.70;;;;;;;;;;5143214;27;20379;-67
2023/07/06 01:01:53;;;;;;;2.85;2.53;;;;;;;;;;5142894;27;20490;-67
2023/07/06 01:04:21;;;;;;;5.18;2.33;;;;;;;;;;5143188;27;20490;-67
2023/07/06 01:06:49;;;;;;;3.35;1.95;;;;;;;;;;5142902;27;20198;-67
2023/07/06 01:09:17;;;;;;;2.95;2.03;;;;;;;;;;5142900;27;20265;-67
2023/07/06 01:11:44;;;;;;;2.70;1.80;;;;;;;;;;5142910;27;20248;-67
2023/07/06 01:14:12;;;;;;;2.63;2.03;;;;;;;;;;5143190;27;20571;-67
2023/07/06 01:16:42;;;;;;;2.05;1.90;;;;;;;;;;5142934;27;20396;-67
2023/07/06 01:19:13;;;;;;;2.92;2.10;;;;;;;;;;5142827;27;20194;-67
2023/07/06 01:21:43;;;;;;;2.40;2.20;;;;;;;;;;5142736;27;20518;-67
2023/07/06 01:24:29;;;;;;;4.03;2.25;;;;;;;;;;5142993;27;20194;-67
2023/07/06 01:27:03;;;;;;;3.40;2.20;;;;;;;;;;5142805;27;20199;-67
2023/07/06 01:29:49;;;;;;;2.13;2.03;;;;;;;;;;5142423;27;20390;-67
2023/07/06 01:32:18;;;;;;;1.92;1.83;;;;;;;;;;5142601;27;20183;-67
2023/07/06 01:34:53;;;;;;;5.65;2.63;;;;;;;;;;5142812;27;20215;-67
2023/07/06 01:37:22;;;;;;;1.85;1.75;;;;;;;;;;5142620;27;20227;-67
2023/07/06 01:39:49;;;;;;;2.25;1.80;;;;;;;;;;5142736;27;20201;-67
2023/07/06 01:42:26;;;;;;;3.40;2.00;;;;;;;;;;5142604;27;20194;-67
2023/07/06 01:44:53;;;;;;;1.90;1.80;;;;;;;;;;5143542;27;20363;-68
2023/07/06 01:47:20;;;;;;;1.80;1.70;;;;;;;;;;5146557;27;20202;-66
2023/07/06 01:49:48;;;;;;;2.22;2.13;;;;;;;;;;5146568;27;20200;-66
2023/07/06 01:52:20;;;;;;;4.03;2.30;;;;;;;;;;5146241;27;20502;-66
2023/07/06 01:54:49;;;;;;;2.30;2.10;;;;;;;;;;5146716;27;20226;-66
2023/07/06 01:57:19;;;;;;;3.70;2.25;;;;;;;;;;5146364;27;20218;-66
2023/07/06 01:59:47;;;;;;;3.15;2.13;;;;;;;;;;5146213;27;20228;-68
2023/07/06 02:02:14;;;;;;;4.18;2.40;;;;;;;;;;5146215;27;20195;-68
2023/07/06 02:04:43;;;;;;;2.35;1.90;;;;;;;;;;5146238;27;20266;-68
2023/07/06 02:07:10;;;;;;;1.90;1.80;;;;;;;;;;5146007;27;20210;-68
2023/07/06 02:09:42;;;;;;;3.35;2.40;;;;;;;;;;5146143;27;20195;-68
2023/07/06 02:12:11;;;;;;;3.05;2.40;;;;;;;;;;5145998;27;20194;-68
2023/07/06 02:14:37;;;;;;;3.80;2.13;;;;;;;;;;5145759;27;20211;-68
2023/07/06 02:17:03;;;;;;;2.80;2.60;;;;;;;;;;5146376;27;20383;-66
2023/07/06 02:19:29;;;;;;;2.92;2.60;;;;;;;;;;5145845;27;20200;-68
2023/07/06 02:21:57;;;;;;;2.05;1.92;;;;;;;;;;5145741;27;20190;-68
2023/07/06 02:24:23;;;;;;;2.70;2.25;;;;;;;;;;5145711;27;20190;-67
2023/07/06 02:26:50;;;;;;;3.45;2.67;;;;;;;;;;5145693;27;20212;-67
2023/07/06 02:29:16;;;;;;;2.67;2.42;;;;;;;;;;5145710;27;20389;-67
2023/07/06 02:31:43;;;;;;;2.17;1.85;;;;;;;;;;5145612;27;20201;-67
2023/07/06 02:34:09;;;;;;;7.90;2.47;;;;;;;;;;5145439;27;20251;-67
2023/07/06 02:36:37;;;;;;;2.92;2.80;;;;;;;;;;5145555;27;20195;-66
2023/07/06 02:39:05;;;;;;;4.07;2.60;;;;;;;;;;5145803;27;20383;-66
2023/07/06 02:41:31;;;;;;;3.17;2.47;;;;;;;;;;5145575;27;20269;-66
2023/07/06 02:43:58;;;;;;;3.20;2.90;;;;;;;;;;5145392;27;20190;-66
2023/07/06 02:46:24;;;;;;;4.55;4.00;;;;;;;;;;5145273;27;20277;-66
2023/07/06 02:48:51;;;;;;;4.65;3.45;;;;;;;;;;5145657;27;20209;-66
2023/07/06 02:51:17;;;;;;;4.13;3.72;;;;;;;;;;5145205;27;20502;-66
2023/07/06 02:53:43;;;;;;;4.53;3.78;;;;;;;;;;5145364;27;20209;-66
2023/07/06 02:56:11;;;;;;;4.72;3.80;;;;;;;;;;5144848;27;20195;-66
2023/07/06 02:58:37;;;;;;;5.30;3.75;;;;;;;;;;5144573;27;20393;-66
2023/07/06 03:01:04;;;;;;;3.53;3.30;;;;;;;;;;5144755;27;20281;-66
2023/07/06 03:03:30;;;;;;;3.67;2.80;;;;;;;;;;5145323;27;20194;-66
2023/07/06 03:05:56;;;;;;;6.38;2.78;;;;;;;;;;5145129;27;20198;-67
2023/07/06 03:08:22;;;;;;;7.43;3.00;;;;;;;;;;5144920;27;20190;-66
2023/07/06 03:10:49;;;;;;;3.20;2.50;;;;;;;;;;5144838;27;20266;-66
2023/07/06 03:13:17;;;;;;;2.97;2.50;;;;;;;;;;5144951;27;20199;-66
2023/07/06 03:15:45;;;;;;;2.00;1.90;;;;;;;;;;5144755;27;20194;-66
2023/07/06 03:18:13;;;;;;;3.15;1.88;;;;;;;;;;5145087;27;20493;-66
2023/07/06 03:20:40;;;;;;;2.83;2.33;;;;;;;;;;5145011;27;20534;-66
2023/07/06 03:23:07;;;;;;;5.30;2.38;;;;;;;;;;5144944;27;20198;-66
2023/07/06 03:25:34;;;;;;;2.97;2.28;;;;;;;;;;5144704;27;20194;-66
2023/07/06 03:28:00;;;;;;;2.05;1.90;;;;;;;;;;5144606;27;20260;-66
2023/07/06 03:30:29;;;;;;;3.10;2.80;;;;;;;;;;5144555;27;20195;-66
2023/07/06 03:32:55;;;;;;;2.67;2.33;;;;;;;;;;5144356;27;20194;-66
2023/07/06 03:35:23;;;;;;;2.47;2.20;;;;;;;;;;5144460;27;20218;-66
2023/07/06 03:37:50;;;;;;;2.42;2.22;;;;;;;;;;5144514;27;20194;-66
2023/07/06 03:40:16;;;;;;;3.60;2.70;;;;;;;;;;5144484;27;20201;-66
2023/07/06 03:42:44;;;;;;;2.85;2.65;;;;;;;;;;5143974;27;20486;-66
2023/07/06 03:45:11;;;;;;;2.85;2.13;;;;;;;;;;5144364;27;20202;-66
2023/07/06 03:47:42;;;;;;;2.28;2.17;;;;;;;;;;5144445;27;20367;-66
2023/07/06 03:50:09;;;;;;;3.47;2.47;;;;;;;;;;5144314;27;20475;-66
2023/07/06 03:52:37;;;;;;;2.47;2.22;;;;;;;;;;5143990;27;20382;-66
2023/07/06 03:55:04;;;;;;;4.55;2.13;;;;;;;;;;5144395;27;20291;-66
2023/07/06 03:57:31;;;;;;;2.40;2.30;;;;;;;;;;5143835;27;20199;-66
2023/07/06 03:59:57;;;;;;;2.63;2.42;;;;;;;;;;5143964;27;20206;-66
2023/07/06 04:02:23;;;;;;;3.85;2.88;;;;;;;;;;5143770;27;20194;-66
2023/07/06 04:04:52;;;;;;;3.03;2.60;;;;;;;;;;5143916;27;20213;-66
2023/07/06 04:07:19;;;;;;;3.88;2.90;;;;;;;;;;5143627;27;20201;-66
2023/07/06 04:09:45;;;;;;;2.72;2.40;;;;;;;;;;5143465;27;20200;-66
2023/07/06 04:12:13;;;;;;;2.95;2.67;;;;;;;;;;5143313;27;20195;-66
2023/07/06 04:14:39;;;;;;;2.70;2.50;;;;;;;;;;5143774;27;20248;-66
2023/07/06 04:17:07;;;;;;;2.63;2.53;;;;;;;;;;5143629;27;20194;-69
2023/07/06 04:19:35;;;;;;;3.17;2.60;;;;;;;;;;5143455;27;20239;-69
2023/07/06 04:22:02;;;;;;;3.17;2.60;;;;;;;;;;5143310;27;20247;-69
2023/07/06 04:24:31;;;;;;;4.40;2.80;;;;;;;;;;5143557;27;20226;-69
2023/07/06 04:26:59;;;;;;;3.47;2.90;;;;;;;;;;5143564;27;20194;-70
2023/07/06 04:29:26;;;;;;;2.63;2.42;;;;;;;;;;5143725;27;20447;-69
2023/07/06 04:31:52;;;;;;;3.20;2.90;;;;;;;;;;5143404;27;20194;-69
2023/07/06 04:34:20;;;;;;;4.70;2.72;;;;;;;;;;5143278;27;20214;-69
2023/07/06 04:36:46;;;;;;;2.85;2.67;;;;;;;;;;5143398;27;20233;-69
2023/07/06 04:39:15;;;;;;;2.85;2.65;;;;;;;;;;5143225;27;20203;-69
2023/07/06 04:41:43;;;;;;;3.53;2.58;;;;;;;;;;5143417;27;20532;-69
2023/07/06 04:44:09;;;;;;;2.92;2.63;;;;;;;;;;5143434;27;20265;-69
2023/07/06 04:46:36;;;;;;;3.33;2.72;;;;;;;;;;5143278;27;20194;-69
2023/07/06 04:49:03;;;;;;;3.00;2.70;;;;;;;;;;5143282;27;20197;-69
2023/07/06 04:51:29;;;;;;;3.30;3.03;;;;;;;;;;5142999;27;20203;-69
2023/07/06 04:53:56;;;;;;;2.72;2.63;;;;;;;;;;5143139;27;20218;-69
2023/07/06 04:56:24;;;;;;;3.00;2.80;;;;;;;;;;5143224;27;20194;-69
2023/07/06 04:58:50;;;;;;;3.63;3.10;;;;;;;;;;5143194;27;20502;-69
2023/07/06 05:01:16;;;;;;;3.00;2.80;;;;;;;;;;5143050;27;20194;-69
2023/07/06 05:03:44;;;;;;;3.13;2.92;;;;;;;;;;5143072;27;20194;-69
2023/07/06 05:06:12;;;;;;;5.88;3.20;;;;;;;;;;5142890;27;20221;-69
2023/07/06 05:08:39;;;;;;;6.03;3.22;;;;;;;;;;5143242;27;20247;-69
2023/07/06 05:11:06;;;;;;;3.00;2.80;;;;;;;;;;5142920;27;20246;-69
2023/07/06 05:13:33;;;;;;;3.47;3.00;;;;;;;;;;5143060;27;20486;-69
2023/07/06 05:16:00;;;;;;;6.75;3.40;;;;;;;;;;5143269;27;20218;-69
2023/07/06 05:18:26;;;;;;;4.28;3.35;;;;;;;;;;5143137;27;20222;-69
2023/07/06 05:20:56;;;;;;;3.10;2.90;;;;;;;;;;5145025;27;20506;-70
2023/07/06 05:23:23;;;;;;;3.20;2.60;;;;;;;;;;5147663;27;20245;-70
2023/07/06 05:25:51;;;;;;;3.70;2.80;;;;;;;;;;5146909;27;20495;-70
2023/07/06 05:28:19;;;;;;;3.10;2.90;;;;;;;;;;5147237;27;20229;-70
2023/07/06 05:30:46;;;;;;;4.30;2.92;;;;;;;;;;5146981;27;20494;-69
2023/07/06 05:33:13;;;;;;;6.40;3.50;;;;;;;;;;5146611;27;20502;-69
2023/07/06 05:35:40;;;;;;;3.42;3.13;;;;;;;;;;5147053;27;20240;-69
2023/07/06 05:38:10;;;;;;;3.25;2.92;;;;;;;;;;5147371;27;20194;-69
2023/07/06 05:40:36;;;;;;;3.15;2.88;;;;;;;;;;5146841;27;20200;-69
2023/07/06 05:43:02;;;;;;;3.65;3.05;;;;;;;;;;5146415;27;20198;-69
2023/07/06 05:45:29;;;;;;;3.95;3.38;;;;;;;;;;5146833;27;20201;-69
2023/07/06 05:47:56;;;;;;;3.00;2.80;;;;;;;;;;5146417;27;20585;-69
2023/07/06 05:50:23;;;;;;;3.13;2.92;;;;;;;;;;5146635;27;20266;-69
2023/07/06 05:52:49;;;;;;;4.00;3.05;;;;;;;;;;5146472;27;20201;-69
2023/07/06 05:55:16;;;;;;;4.43;3.08;;;;;;;;;;5146373;27;20220;-69
2023/07/06 05:57:43;;;;;;;5.18;2.85;;;;;;;;;;5146592;27;20371;-69
2023/07/06 06:00:10;;;;;;;4.07;2.95;;;;;;;;;;5146164;27;20225;-69
2023/07/06 06:02:37;;;;;;;5.43;2.90;;;;;;;;;;5145951;27;20194;-69
2023/07/06 06:05:05;;;;;;;3.10;2.80;;;;;;;;;;5146576;27;20205;-70
2023/07/06 06:07:33;;;;;;;3.15;2.50;;;;;;;;;;5146435;27;20217;-69
2023/07/06 06:10:03;;;;;;;3.20;2.90;;;;;;;;;;5146089;27;20259;-69
2023/07/06 06:12:31;;;;;;;2.88;2.72;;;;;;;;;;5145870;27;20287;-69
2023/07/06 06:14:57;;;;;;;4.10;2.83;;;;;;;;;;5145681;27;20222;-69
2023/07/06 06:17:26;;;;;;;3.75;2.97;;;;;;;;;;5146317;27;20194;-57
2023/07/06 06:19:53;;;;;;;4.15;2.80;;;;;;;;;;5146187;27;20240;-57
2023/07/06 06:22:20;;;;;;;3.15;2.92;;;;;;;;;;5146250;27;20434;-58
2023/07/06 06:24:47;;;;;;;4.95;3.33;;;;;;;;;;5145891;27;20490;-58
2023/07/06 06:27:14;;;;;;;3.67;2.97;;;;;;;;;;5145749;27;20236;-58
2023/07/06 06:29:42;;;;;;;3.85;2.97;;;;;;;;;;5145729;27;20194;-58
2023/07/06 06:32:08;;;;;;;5.57;3.50;;;;;;;;;;5137987;27;20210;-56
2023/07/06 06:34:35;;;;;;;6.47;3.58;;;;;;;;;;5138987;27;20301;-57
2023/07/06 06:37:03;;;;;;;5.50;3.70;;;;;;;;;;5143544;27;20214;-57
2023/07/06 06:39:31;;;;;;;7.85;3.13;;;;;;;;;;5142923;27;20206;-56
2023/07/06 06:41:58;;;;;;;4.32;3.30;;;;;;;;;;5142790;27;20203;-56
2023/07/06 06:44:25;;;;;;;3.47;3.08;;;;;;;;;;5143252;27;20214;-57
2023/07/06 06:46:51;;;;;;;3.10;2.80;;;;;;;;;;5143204;27;20403;-57
2023/07/06 06:49:18;;;;;;;6.40;3.03;;;;;;;;;;5142869;27;20382;-57
2023/07/06 06:51:44;;;;;;;2.92;2.72;;;;;;;;;;5142844;27;20367;-56
2023/07/06 06:54:11;;;;;;;4.85;2.83;;;;;;;;;;5142517;27;20206;-55
2023/07/06 06:56:38;;;;;;;3.97;2.83;;;;;;;;;;5140604;27;20453;-55
2023/07/06 06:59:05;;;;;;;3.50;2.70;;;;;;;;;;5141682;27;20225;-55
2023/07/06 07:01:31;;;;;;;4.50;2.75;;;;;;;;;;5142067;27;20210;-56
2023/07/06 07:03:59;;;;;;;7.68;2.90;;;;;;;;;;5141777;27;20243;-55
2023/07/06 07:06:28;;;;;;;8.63;2.95;;;;;;;;;;5141983;27;20229;-56
2023/07/06 07:08:54;;;;;;;9.70;3.30;;;;;;;;;;5141388;27;20213;-56
2023/07/06 07:11:22;;;;;;;3.75;2.78;;;;;;;;;;5141381;27;20206;-55
2023/07/06 07:13:49;;;;;;;6.10;2.80;;;;;;;;;;5141446;27;20202;-56
2023/07/06 07:16:16;;;;;;;5.63;2.53;;;;;;;;;;5141190;27;20230;-56
2023/07/06 07:18:43;;;;;;;4.25;2.40;;;;;;;;;;5141587;27;20209;-56
2023/07/06 07:21:10;;;;;;;5.05;2.45;;;;;;;;;;5136864;27;20242;-58
2023/07/06 07:23:37;;;;;;;3.83;2.30;;;;;;;;;;5141211;27;20214;-58
2023/07/06 07:26:04;;;;;;;3.17;2.22;;;;;;;;;;5141258;27;20206;-59
2023/07/06 07:28:31;;;;;;;2.45;2.35;;;;;;;;;;5141525;27;20455;-58
2023/07/06 07:30:59;;;;;;;2.40;2.10;;;;;;;;;;5141451;27;20202;-58
2023/07/06 07:33:27;;;;;;;5.43;2.10;;;;;;;;;;5141889;27;20210;-58
2023/07/06 07:35:53;;;;;;;3.28;2.00;;;;;;;;;;5141371;27;20432;-58
2023/07/06 07:38:20;;;;;;;4.45;2.58;;;;;;;;;;5140808;27;20202;-56
2023/07/06 07:40:56;;;;;;;5.28;2.03;;;;;;;;;;5141415;27;20217;-54
2023/07/06 07:43:25;;;;;;;5.32;2.30;;;;;;;;;;5140946;27;20206;-58
2023/07/06 07:45:53;;;;;;;3.70;2.35;;;;;;;;;;5140897;27;20456;-57
2023/07/06 07:48:22;;;;;;;3.70;2.00;;;;;;;;;;5141156;27;20213;-55
2023/07/06 07:50:48;;;;;;;2.83;1.77;;;;;;;;;;5140562;27;20402;-56
2023/07/06 07:53:15;;;;;;;2.40;2.20;;;;;;;;;;5140747;27;20544;-56
2023/07/06 07:55:41;;;;;;;9.60;2.47;;;;;;;;;;5140583;27;20226;-54
2023/07/06 07:58:08;;;;;;;2.08;1.80;;;;;;;;;;5141063;27;20490;-55
2023/07/06 08:00:34;;;;;;;4.22;2.15;;;;;;;;;;5140483;27;20213;-56
2023/07/06 08:03:03;;;;;;;3.15;2.13;;;;;;;;;;5140273;27;20229;-56
2023/07/06 08:05:31;;;;;;;3.60;2.00;;;;;;;;;;5140657;27;20228;-57
2023/07/06 08:07:57;;;;;;;2.05;1.85;;;;;;;;;;5140840;27;20202;-56
2023/07/06 08:10:24;;;;;;;1.92;1.83;;;;;;;;;;5140576;27;20206;-57
2023/07/06 08:12:50;;;;;;;2.30;1.85;;;;;;;;;;5139999;27;20464;-55
2023/07/06 08:15:16;;;;;;;2.25;2.05;;;;;;;;;;5140459;27;20225;-57
2023/07/06 08:17:43;;;;;;;1.88;1.77;;;;;;;;;;5140696;27;20210;-56
2023/07/06 08:20:14;;;;;;;2.92;1.88;;;;;;;;;;5141052;27;20206;-57
2023/07/06 08:22:42;;;;;;;4.43;1.63;;;;;;;;;;5140189;27;20565;-58
2023/07/06 08:25:08;;;;;;;4.10;1.45;;;;;;;;;;5140899;27;20206;-58
2023/07/06 08:27:35;;;;;;;2.67;1.55;;;;;;;;;;5140448;27;20226;-58
2023/07/06 08:30:01;;;;;;;2.58;1.65;;;;;;;;;;5140874;27;20203;-57
2023/07/06 08:32:28;;;;;;;1.88;1.77;;;;;;;;;;5140170;27;20234;-57
2023/07/06 08:34:54;;;;;;;6.47;2.17;;;;;;;;;;5140643;27;20206;-55
2023/07/06 08:37:21;;;;;;;2.45;1.95;;;;;;;;;;5140540;27;20474;-60
2023/07/06 08:39:49;;;;;;;3.30;1.52;;;;;;;;;;5137824;27;20265;-57
2023/07/06 08:42:18;;;;;;;3.10;1.75;;;;;;;;;;5140803;27;20576;-57
2023/07/06 08:44:46;;;;;;;1.88;1.20;;;;;;;;;;5140395;27;20209;-57
2023/07/06 08:47:13;;;;;;;1.45;1.23;;;;;;;;;;5140559;27;20514;-57
2023/07/06 08:49:43;;;;;;;1.92;1.65;;;;;;;;;;5140837;28;20405;-55
2023/07/06 08:52:11;;;;;;;2.13;1.50;;;;;;;;;;5140167;27;20199;-57
2023/07/06 08:54:38;;;;;;;2.20;1.83;;;;;;;;;;5140206;27;20213;-56
2023/07/06 08:57:09;;;;;;;1.95;1.67;;;;;;;;;;5144867;27;20245;-56
2023/07/06 08:59:38;;;;;;;1.98;1.52;;;;;;;;;;5144732;27;20213;-58
2023/07/06 09:02:09;;;;;;;4.15;1.65;;;;;;;;;;5145064;27;20212;-58
2023/07/06 09:04:37;;;;;;;2.65;1.40;;;;;;;;;;5145058;27;20220;-56
2023/07/06 09:07:03;;;;;;;3.42;1.48;;;;;;;;;;5142151;27;20461;-58
2023/07/06 09:09:31;;;;;;;1.75;1.65;;;;;;;;;;5144053;27;20955;-56
2023/07/06 09:12:00;;;;;;;1.70;1.60;;;;;;;;;;5144659;27;20493;-57
2023/07/06 09:14:28;;;;;;;1.83;1.80;;;;;;;;;;5144520;27;20212;-56
2023/07/06 09:16:56;;;;;;;3.35;1.85;;;;;;;;;;5143099;27;20541;-56
2023/07/06 09:19:23;;;;;;;2.03;1.92;;;;;;;;;;5143712;27;20474;-55
2023/07/06 09:21:51;;;;;;;2.10;1.88;;;;;;;;;;5139521;27;20216;-56
2023/07/06 09:24:17;;;;;;;2.90;1.80;;;;;;;;;;5143830;27;20679;-56
2023/07/06 09:26:45;;;;;;;3.00;1.70;;;;;;;;;;5144043;27;20198;-57
2023/07/06 09:29:13;;;;;;;2.25;1.55;;;;;;;;;;5144146;27;20571;-56
2023/07/06 09:31:41;;;;;;;2.30;2.08;;;;;;;;;;5143293;27;20227;-57
2023/07/06 09:34:21;;;;;;;4.32;1.65;;;;;;;;;;5143788;27;20228;-57
2023/07/06 09:36:48;;;;;;;4.10;2.50;;;;;;;;;;5143488;27;20221;-56
2023/07/06 09:39:14;;;;;;;1.80;1.65;;;;;;;;;;5143736;27;20510;-57
2023/07/06 09:41:44;;;;;;;1.98;1.83;;;;;;;;;;5144160;27;20269;-58
2023/07/06 09:44:13;;;;;;;3.58;1.63;;;;;;;;;;5143913;27;20209;-57
2023/07/06 09:46:40;;;;;;;4.75;2.10;;;;;;;;;;5142951;27;20206;-58
2023/07/06 09:49:13;;;;;;;2.20;2.10;;;;;;;;;;5143455;27;20202;-57
2023/07/06 09:51:43;;;;;;;2.90;1.85;;;;;;;;;;5143487;27;20221;-57
2023/07/06 09:54:13;;;;;;;2.38;2.17;;;;;;;;;;5143945;27;20229;-55
2023/07/06 09:56:39;;;;;;;2.00;1.90;;;;;;;;;;5143688;27;20541;-56
2023/07/06 09:59:06;;;;;;;3.78;2.15;;;;;;;;;;5143651;27;20220;-57
2023/07/06 10:01:37;;;;;;;2.08;1.90;;;;;;;;;;5143085;27;20280;-57
2023/07/06 10:04:12;;;;;;;2.00;1.90;;;;;;;;;;5143904;27;20469;-58
2023/07/06 10:06:48;;;;;;;2.78;2.03;;;;;;;;;;5142631;27;20205;-57
2023/07/06 10:09:17;;;;;;;2.35;2.05;;;;;;;;;;5142558;27;20202;-58
2023/07/06 10:11:49;;;;;;;2.10;1.90;;;;;;;;;;5143436;27;20213;-56
2023/07/06 10:14:21;;;;;;;2.15;1.60;;;;;;;;;;5143466;27;20202;-57
2023/07/06 10:16:51;;;;;;;2.33;2.00;;;;;;;;;;5143203;27;20206;-57
2023/07/06 10:19:21;;;;;;;3.92;2.10;;;;;;;;;;5143435;27;20210;-56
2023/07/06 10:21:50;;;;;;;3.22;2.00;;;;;;;;;;5143206;27;20224;-56
2023/07/06 10:24:22;;;;;;;2.00;1.90;;;;;;;;;;5142750;27;20506;-57
2023/07/06 10:26:52;;;;;;;3.40;2.17;;;;;;;;;;5143062;27;20202;-57
2023/07/06 10:29:22;;;;;;;5.43;2.03;;;;;;;;;;5143613;27;20228;-57
2023/07/06 10:31:51;;;;;;;3.83;2.03;;;;;;;;;;5142679;27;20206;-57
2023/07/06 10:34:20;;;;;;;2.35;1.90;;;;;;;;;;5143349;27;20213;-56
2023/07/06 10:36:47;;;;;;;3.05;2.47;;;;;;;;;;5142719;27;20285;-57
2023/07/06 10:39:39;;;;;;;2.20;2.00;;;;;;;;;;5142443;27;20515;-57
2023/07/06 10:42:12;;;;;;;3.70;1.85;;;;;;;;;;5136103;27;20210;-59
2023/07/06 10:44:45;;;;;;;5.20;1.92;;;;;;;;;;5143115;27;20210;-57
2023/07/06 10:47:26;;;;;;;2.28;2.10;;;;;;;;;;5142572;27;20202;-57
2023/07/06 10:50:04;;;;;;;2.60;2.00;;;;;;;;;;5134721;27;20355;-57
2023/07/06 10:52:31;;;;;;;2.35;2.13;;;;;;;;;;5139903;27;20205;-56
2023/07/06 10:54:59;;;;;;;2.58;2.17;;;;;;;;;;5142642;27;20229;-57
2023/07/06 10:57:33;;;;;;;2.58;2.15;;;;;;;;;;5142757;27;20230;-56
2023/07/06 11:00:05;;;;;;;2.40;1.77;;;;;;;;;;5134837;27;20214;-58
2023/07/06 11:02:36;;;;;;;3.90;2.08;;;;;;;;;;5141837;27;20446;-57
2023/07/06 11:05:09;;;;;;;3.58;1.98;;;;;;;;;;5142213;27;20276;-57
2023/07/06 11:07:42;;;;;;;2.50;2.08;;;;;;;;;;5141585;27;20220;-58
2023/07/06 11:10:26;;;;;;;2.42;2.28;;;;;;;;;;5141463;27;20509;-57
2023/07/06 11:12:55;;;;;;;2.25;2.08;;;;;;;;;;5141873;27;20202;-57
2023/07/06 11:15:25;;;;;;;2.72;2.08;;;;;;;;;;5142261;27;20214;-57
2023/07/06 11:17:53;;;;;;;1.90;1.80;;;;;;;;;;5140049;27;20232;-58
2023/07/06 11:20:21;;;;;;;2.85;2.15;;;;;;;;;;5141894;27;20411;-57
2023/07/06 11:22:51;;;;;;;3.58;1.90;;;;;;;;;;5142309;27;20205;-57
2023/07/06 11:25:19;;;;;;;3.17;1.95;;;;;;;;;;5136602;27;20407;-58
2023/07/06 11:27:46;;;;;;;4.38;2.25;;;;;;;;;;5147469;27;20217;-58
2023/07/06 11:30:17;;;;;;;2.25;2.15;;;;;;;;;;5142053;27;20210;-57
2023/07/06 11:32:51;;;;;;;2.83;1.95;;;;;;;;;;5141195;27;20410;-55
2023/07/06 11:35:24;;;;;;;4.32;2.28;;;;;;;;;;5141673;27;20213;-58
2023/07/06 11:37:57;;;;;;;2.97;2.10;;;;;;;;;;5141338;27;20439;-56
2023/07/06 11:40:30;;;;;;;2.47;1.88;;;;;;;;;;5141450;27;20228;-57
2023/07/06 11:43:03;;;;;;;2.05;2.05;;;;;;;;;;5139946;27;20239;-57
2023/07/06 11:45:35;;;;;;;3.15;2.00;;;;;;;;;;5141336;27;20249;-57
2023/07/06 11:48:05;;;;;;;4.25;2.15;;;;;;;;;;5138811;27;20510;-58
2023/07/06 11:50:35;;;;;;;1.88;1.77;;;;;;;;;;5137749;27;20214;-56
2023/07/06 11:53:11;;;;;;;2.47;1.55;;;;;;;;;;5140612;27;20274;-57
2023/07/06 11:55:50;;;;;;;4.63;1.90;;;;;;;;;;5140730;27;20205;-56
2023/07/06 11:58:28;;;;;;;2.30;2.10;;;;;;;;;;5136234;27;20810;-57
2023/07/06 12:01:00;;;;;;;1.90;1.80;;;;;;;;;;5140518;27;20236;-57
2023/07/06 12:03:29;;;;;;;3.03;2.17;;;;;;;;;;5140521;27;20220;-56
2023/07/06 12:05:58;;;;;;;2.35;2.20;;;;;;;;;;5140398;27;20456;-57
2023/07/06 12:08:27;;;;;;;4.93;2.00;;;;;;;;;;5140498;27;20197;-57
2023/07/06 12:10:56;;;;;;;2.65;2.45;;;;;;;;;;5140165;27;20402;-55
2023/07/06 12:13:25;;;;;;;2.67;2.40;;;;;;;;;;5140845;27;20502;-57
2023/07/06 12:15:54;;;;;;;2.20;2.03;;;;;;;;;;5140689;27;20206;-57
2023/07/06 12:18:23;;;;;;;2.90;1.92;;;;;;;;;;5140892;27;20237;-55
2023/07/06 12:20:51;;;;;;;3.28;2.20;;;;;;;;;;5140802;27;20205;-57
2023/07/06 12:23:17;;;;;;;3.92;2.30;;;;;;;;;;5140729;27;20206;-57
2023/07/06 12:25:44;;;;;;;3.30;2.10;;;;;;;;;;5140625;27;20206;-55
2023/07/06 12:28:11;;;;;;;2.53;2.03;;;;;;;;;;5140948;27;20537;-55
2023/07/06 12:30:39;;;;;;;2.30;2.08;;;;;;;;;;5140490;27;20250;-57
2023/07/06 12:33:08;;;;;;;3.20;2.08;;;;;;;;;;5140340;27;20314;-57
2023/07/06 12:35:36;;;;;;;3.75;2.05;;;;;;;;;;5140431;27;20393;-57
2023/07/06 12:38:09;;;;;;;2.85;2.20;;;;;;;;;;5140738;27;20228;-57
2023/07/06 12:40:36;;;;;;;3.78;1.85;;;;;;;;;;5140395;27;20227;-58
2023/07/06 12:43:03;;;;;;;2.40;2.20;;;;;;;;;;5139646;27;20205;-58
2023/07/06 12:45:30;;;;;;;4.32;2.10;;;;;;;;;;5132936;27;20498;-57
2023/07/06 12:47:57;;;;;;;3.50;2.05;;;;;;;;;;5140119;27;20198;-55
2023/07/06 12:50:29;;;;;;;2.95;2.05;;;;;;;;;;5140380;27;20206;-56
2023/07/06 12:53:03;;;;;;;3.17;2.33;;;;;;;;;;5140221;27;20292;-58
2023/07/06 12:55:31;;;;;;;2.30;2.10;;;;;;;;;;5140459;27;20212;-58
2023/07/06 12:57:57;;;;;;;4.30;1.95;;;;;;;;;;5140115;27;20406;-56
2023/07/06 13:00:24;;;;;;;5.90;2.05;;;;;;;;;;5140499;27;20214;-58
2023/07/06 13:02:53;;;;;;;4.90;1.90;;;;;;;;;;5140212;27;20241;-58
2023/07/06 13:05:23;;;;;;;2.58;2.20;;;;;;;;;;5140057;27;20202;-58
2023/07/06 13:07:50;;;;;;;3.40;2.30;;;;;;;;;;5139412;27;20552;-58
2023/07/06 13:10:20;;;;;;;3.05;2.15;;;;;;;;;;5139856;27;20206;-57
2023/07/06 13:12:47;;;;;;;1.98;1.88;;;;;;;;;;5139972;27;20206;-55
2023/07/06 13:15:16;;;;;;;2.58;2.15;;;;;;;;;;5140272;27;20276;-58
2023/07/06 13:17:48;;;;;;;1.80;1.70;;;;;;;;;;5139670;27;20567;-57
2023/07/06 13:20:15;;;;;;;2.80;2.53;;;;;;;;;;5140091;27;20243;-58
2023/07/06 13:22:41;;;;;;;2.65;2.20;;;;;;;;;;5140627;27;20546;-57
2023/07/06 13:25:13;;;;;;;2.85;2.33;;;;;;;;;;5139701;27;20404;-55
2023/07/06 13:27:40;;;;;;;3.55;2.50;;;;;;;;;;5139903;27;20536;-58
2023/07/06 13:30:08;;;;;;;3.63;2.45;;;;;;;;;;5139755;27;20205;-58
2023/07/06 13:32:34;;;;;;;2.20;2.00;;;;;;;;;;5139407;27;20206;-57
2023/07/06 13:35:01;;;;;;;4.82;2.38;;;;;;;;;;5139435;27;20205;-57
2023/07/06 13:37:28;;;;;;;4.00;2.13;;;;;;;;;;5139567;27;20314;-57
2023/07/06 13:39:59;;;;;;;4.03;2.28;;;;;;;;;;5139837;27;20273;-58
2023/07/06 13:42:26;;;;;;;2.38;2.17;;;;;;;;;;5142317;27;20201;-57
2023/07/06 13:44:54;;;;;;;3.20;2.17;;;;;;;;;;5143633;27;20208;-57
2023/07/06 13:47:21;;;;;;;3.90;2.25;;;;;;;;;;5143321;27;20524;-57
2023/07/06 13:49:48;;;;;;;2.80;2.25;;;;;;;;;;5143501;27;20280;-57
2023/07/06 13:52:15;;;;;;;2.63;2.20;;;;;;;;;;5140821;27;20202;-57
2023/07/06 13:54:42;;;;;;;2.45;1.90;;;;;;;;;;5142890;27;20443;-58
2023/07/06 13:57:10;;;;;;;2.58;2.15;;;;;;;;;;5143173;27;20222;-57
2023/07/06 13:59:37;;;;;;;2.28;2.17;;;;;;;;;;5139245;27;20568;-56
2023/07/06 14:02:04;;;;;;;2.83;2.20;;;;;;;;;;5143575;27;20596;-57
2023/07/06 14:04:31;;;;;;;2.65;2.45;;;;;;;;;;5144124;27;20224;-57
2023/07/06 14:06:58;;;;;;;2.75;2.47;;;;;;;;;;5143698;27;20403;-56
2023/07/06 14:09:24;;;;;;;2.28;2.00;;;;;;;;;;5143529;27;20228;-57
2023/07/06 14:11:50;;;;;;;2.67;2.22;;;;;;;;;;5143428;27;20244;-57
2023/07/06 14:14:17;;;;;;;3.33;2.17;;;;;;;;;;5143741;27;20205;-57
2023/07/06 14:16:45;;;;;;;2.40;2.20;;;;;;;;;;5143667;27;20209;-57
2023/07/06 14:19:13;;;;;;;3.60;2.47;;;;;;;;;;5143819;27;20201;-57
2023/07/06 14:21:39;;;;;;;3.70;2.50;;;;;;;;;;5143539;27;20420;-57
2023/07/06 14:24:05;;;;;;;2.90;2.08;;;;;;;;;;5143813;27;20435;-57
2023/07/06 14:26:32;;;;;;;2.35;2.15;;;;;;;;;;5143411;27;20199;-56
2023/07/06 14:28:58;;;;;;;3.90;1.92;;;;;;;;;;5143543;27;20214;-57
2023/07/06 14:31:27;;;;;;;2.40;2.00;;;;;;;;;;5143860;27;20198;-57
2023/07/06 14:33:53;;;;;;;3.85;2.33;;;;;;;;;;5143849;27;20412;-57
2023/07/06 14:36:22;;;;;;;2.67;2.35;;;;;;;;;;5143191;27;20209;-58
2023/07/06 14:38:48;;;;;;;2.28;2.17;;;;;;;;;;5143319;27;20226;-58
2023/07/06 14:41:15;;;;;;;2.40;2.20;;;;;;;;;;5143225;27;20204;-59
2023/07/06 14:43:41;;;;;;;5.03;2.05;;;;;;;;;;5143930;27;20547;-56
2023/07/06 14:46:07;;;;;;;2.33;2.15;;;;;;;;;;5143556;27;20418;-57
2023/07/06 14:48:34;;;;;;;4.70;2.17;;;;;;;;;;5143022;27;20193;-57
2023/07/06 14:51:04;;;;;;;5.20;2.58;;;;;;;;;;5143036;27;20466;-57